Pagrindinis puslapis
METAR-TAF:

METAR-TAF

Oro uostai :

Abilene, Teksasas, Jungtinės Amerikos Valstijos

platuma: 32-25-12N, ilguma: 099-51-25W, Aukštis: 545 m

Dabartinis oras

Ataskaita buvo paskelbta 32 minutes, ne 00:56 UTC
Vėjas 5 kt iš Pietų/Pietryčių
Temperatūra 23°C
Drėgmė 53%
Slėgis 1014 hPa
Matomumas: 16.1 km
Giedras dangus

METAR: KDYS 250056Z AUTO 15005KT 10SM CLR 23/13 A2993 RMK AO2 SLP106 T02260128

Laikas: 20:28 (01:28 UTC)

Prognozė

Ataskaita buvo paskelbta 1 valandą ir 28 minutes, ne 00:00 UTC
Prognozė galioja nuo 25 metu 00 UTC su 26 metu 06 UTC
Vėjas 6 kt nuo kintamojo kryptimis
Matomumas 10 km arba daugiau
Giedras dangus
Tapsmas
nuo 25 metu 19 UTC su 25 metu 20 UTC
Vėjas 9 kt iš Pietų
Matomumas 10 km arba daugiau
Giedras dangus

TAF: KDYS 250000Z 2500/2606 VRB06KT 9999 SKC QNH2986INS BECMG 2519/2520 17009KT 9999 SKC QNH2984INS TX33/2521Z TN16/2512Z

Orai ataskaitas ir orų prognozės (METAR, TAF).

turimą stotys yra geltonos ir raudonos taškus žemėlapyje.

Perkelti pele per norėdami pamatyti stoties vardą.

Tada spustelėkite, norėdami matyti oro stebėjimo ir prognozės.

Norėdami pakeisti žemėlapį: spustelėkite ant žalios mygtukų su juodo kryžiaus žemyn,; žalią mygtuką su brūkšneliu, jei norite nutolinti; arba žalių rodyklių gretimoms žemėlapius.


METAR-TAF: